Time;durP1;ratioP1;P1;durP2;ratioP2;P2;SDS_P1;SDS_P2;PMS_P1;PMS_P2;Temp;Humidity;BMP_temperature;BMP_pressure;BME280_temperature;BME280_humidity;BME280_pressure;Samples;Min_cycle;Max_cycle;Signal;HPM_P1;HPM_P2
2022/05/15 00:00:48;;;;;;;11.32;7.00;;;;;;;11.74;89.03;101203.72;701019;23;1710;-80
2022/05/15 00:01:09;;;;;;;10.83;7.10;;;;;;;11.76;88.28;101194.13;693359;28;2178;-80
2022/05/15 00:01:38;;;;;;;9.82;6.97;;;;;;;11.74;88.59;101222.94;688212;28;4289;-80
2022/05/15 00:02:07;;;;;;;10.13;6.80;;;;;;;11.74;88.00;101191.53;685128;28;1638;-80
2022/05/15 00:02:36;;;;;;;9.68;6.72;;;;;;;11.78;87.81;101202.84;688669;28;1368;-80
2022/05/15 00:03:23;;;;;;;8.43;6.57;;;;;;;11.82;87.63;101233.41;689275;28;1533;-80
2022/05/15 00:03:59;;;;;;;10.02;6.90;;;;;;;11.84;89.54;101205.47;687328;28;1437;-79
2022/05/15 00:04:33;;;;;;;10.55;6.90;;;;;;;11.80;89.14;101203.72;685880;28;1591;-79
2022/05/15 00:05:14;;;;;;;8.32;6.53;;;;;;;11.78;90.45;101223.81;682307;28;4970;-80
2022/05/15 00:05:46;;;;;;;12.07;7.20;;;;;;;11.77;90.34;101227.31;684004;28;1279;-79
2022/05/15 00:06:18;;;;;;;11.48;6.85;;;;;;;11.67;90.56;101199.38;684648;28;1125;-79
2022/05/15 00:06:54;;;;;;;10.55;7.15;;;;;;;11.63;90.33;101214.22;689260;28;1759;-78
2022/05/15 00:07:18;;;;;;;9.32;6.57;;;;;;;11.62;91.00;101190.66;689298;28;1334;-79
2022/05/15 00:07:50;;;;;;;8.95;6.82;;;;;;;11.63;89.76;101213.34;671918;28;4967;-81
2022/05/15 00:08:31;;;;;;;11.25;7.07;;;;;;;11.63;90.93;101213.34;685447;28;1471;-81
2022/05/15 00:08:58;;;;;;;10.57;6.72;;;;;;;11.65;89.66;101188.91;685661;28;1285;-80
2022/05/15 00:10:24;;;;;;;11.63;6.93;;;;;;;11.53;91.37;101223.84;690204;28;1232;-79
2022/05/15 00:10:58;;;;;;;10.55;7.00;;;;;;;11.53;91.86;101223.84;686223;28;4877;-79
2022/05/15 00:11:31;;;;;;;12.38;7.05;;;;;;;11.52;91.03;101209.00;689554;28;1330;-80
2022/05/15 00:12:05;;;;;;;9.13;6.65;;;;;;;11.54;91.24;101225.56;686651;28;1152;-79
2022/05/15 00:13:13;;;;;;;11.07;6.68;;;;;;;11.56;89.67;101223.81;684040;28;1354;-79
2022/05/15 00:13:43;;;;;;;9.50;6.55;;;;;;;11.59;88.53;101202.88;674957;28;4935;-79
2022/05/15 00:14:17;;;;;;;11.02;6.90;;;;;;;11.58;89.46;101189.78;685398;28;1278;-79
2022/05/15 00:15:13;;;;;;;10.52;6.82;;;;;;;11.57;89.78;101201.13;687600;28;1237;-79
2022/05/15 00:15:50;;;;;;;10.07;6.82;;;;;;;11.59;89.64;101199.41;683186;28;1587;-81
2022/05/15 00:16:20;;;;;;;10.30;6.90;;;;;;;11.59;90.69;101192.41;684750;28;1746;-79
2022/05/15 00:16:48;;;;;;;11.57;7.65;;;;;;;11.60;90.09;101188.03;670688;28;5030;-80
2022/05/15 00:17:17;;;;;;;10.23;6.93;;;;;;;11.64;89.36;101215.09;683052;28;1332;-80
2022/05/15 00:18:11;;;;;;;;;;;;;;;;;;;;;
2022/05/15 00:19:11;;;;;;;9.20;7.00;;;;;;;11.70;90.28;101223.81;688964;28;1416;-81
2022/05/15 00:19:47;;;;;;;8.60;6.95;;;;;;;11.78;89.40;101192.38;689057;28;4332;-79
2022/05/15 00:20:18;;;;;;;10.40;6.90;;;;;;;11.75;89.18;101210.72;685502;28;1972;-79
2022/05/15 00:20:51;;;;;;;10.52;6.60;;;;;;;11.73;89.00;101186.28;682096;28;1465;-79
2022/05/15 00:21:27;;;;;;;10.23;7.03;;;;;;;11.68;90.76;101193.25;683531;28;1778;-80
2022/05/15 00:21:58;;;;;;;10.35;6.75;;;;;;;11.69;89.08;101218.59;683046;28;1548;-80
2022/05/15 00:22:28;;;;;;;9.75;6.60;;;;;;;11.65;89.93;101207.22;677712;28;4354;-79
2022/05/15 00:22:54;;;;;;;10.10;6.97;;;;;;;11.65;88.99;101186.28;683450;28;1602;-80
2022/05/15 00:23:17;;;;;;;11.00;6.85;;;;;;;11.71;88.38;101216.81;682278;28;1628;-80
2022/05/15 00:23:38;;;;;;;10.38;6.80;;;;;;;11.69;89.82;101218.59;680605;28;1499;-80
2022/05/15 00:24:04;;;;;;;11.02;7.00;;;;;;;11.67;90.19;101188.91;678630;29;1831;-80
2022/05/15 00:25:27;;;;;;;9.63;6.88;;;;;;;11.58;90.33;101208.13;681491;28;1509;-80
2022/05/15 00:25:48;;;;;;;11.55;6.95;;;;;;;11.57;90.55;101215.09;685997;28;4711;-80
2022/05/15 00:26:13;;;;;;;11.00;7.10;;;;;;;11.55;91.70;101189.78;688980;28;1393;-80
2022/05/15 00:26:36;;;;;;;11.45;6.97;;;;;;;11.53;91.37;101186.28;689177;28;1545;-80
2022/05/15 00:27:07;;;;;;;11.27;7.10;;;;;;;11.52;90.17;101206.38;689671;28;1488;-80
2022/05/15 00:27:45;;;;;;;10.05;6.82;;;;;;;11.53;91.51;101207.22;688504;28;1611;-80
2022/05/15 00:28:13;;;;;;;11.65;7.15;;;;;;;11.53;90.77;101186.28;689024;28;1362;-80
2022/05/15 00:28:39;;;;;;;9.13;6.78;;;;;;;11.55;89.90;101188.03;684004;28;4334;-79
2022/05/15 00:29:03;;;;;;;10.32;6.88;;;;;;;11.55;89.40;101195.88;683539;28;1290;-80
2022/05/15 00:29:33;;;;;;;10.38;7.45;;;;;;;11.56;89.19;101202.88;683187;28;1405;-79
2022/05/15 00:29:54;;;;;;;11.48;7.05;;;;;;;11.55;89.58;101211.59;683972;28;1413;-80
2022/05/15 00:30:27;;;;;;;10.47;6.97;;;;;;;11.54;89.00;101209.84;686215;28;1530;-80
2022/05/15 00:30:49;;;;;;;9.90;6.85;;;;;;;11.53;89.73;101202.88;683475;28;1435;-80
2022/05/15 00:31:28;;;;;;;12.65;6.70;;;;;;;11.56;89.01;101187.16;679567;29;1340;-80
2022/05/15 00:31:53;;;;;;;9.52;6.95;;;;;;;11.54;90.98;101186.28;683578;28;4847;-80
2022/05/15 00:32:17;;;;;;;10.48;6.72;;;;;;;11.52;91.02;101216.84;686362;28;1411;-80
2022/05/15 00:32:44;;;;;;;9.32;6.70;;;;;;;11.54;89.66;101188.03;683674;28;1731;-80
2022/05/15 00:33:08;;;;;;;10.13;6.40;;;;;;;11.53;89.92;101208.13;680033;29;1312;-80
2022/05/15 00:33:37;;;;;;;9.15;6.63;;;;;;;11.51;90.15;101209.00;680245;28;1488;-80
2022/05/15 00:33:59;;;;;;;10.30;6.70;;;;;;;11.52;89.97;101181.91;678548;29;1356;-79
2022/05/15 00:34:23;;;;;;;10.32;7.00;;;;;;;11.52;89.41;101206.38;682185;28;4328;-80
2022/05/15 00:34:48;;;;;;;10.52;6.80;;;;;;;11.52;89.88;101187.16;681782;28;1400;-80
2022/05/15 00:35:11;;;;;;;10.05;6.82;;;;;;;11.46;90.28;101198.50;685446;28;1491;-80
2022/05/15 00:35:37;;;;;;;9.55;6.60;;;;;;;11.41;90.79;101198.50;690583;28;1585;-80
2022/05/15 00:36:15;;;;;;;10.70;6.63;;;;;;;11.41;91.49;101201.13;687617;28;2587;-80
2022/05/15 00:36:36;;;;;;;10.65;7.00;;;;;;;11.41;90.83;101214.22;688804;28;1616;-80
2022/05/15 00:36:57;;;;;;;10.10;6.90;;;;;;;11.44;90.65;101200.25;687627;28;1277;-80
2022/05/15 00:37:35;;;;;;;11.77;7.20;;;;;;;11.41;92.09;101205.50;684120;28;1342;-80
2022/05/15 00:37:58;;;;;;;10.13;6.75;;;;;;;11.40;91.64;101208.97;687668;28;5799;-80
2022/05/15 00:38:23;;;;;;;10.95;6.72;;;;;;;11.38;90.40;101182.81;686227;28;1347;-80
2022/05/15 00:38:44;;;;;;;9.70;6.60;;;;;;;11.41;90.28;101187.19;685901;28;1707;-80
2022/05/15 00:39:09;;;;;;;9.93;6.90;;;;;;;11.37;90.53;101181.06;684552;28;1582;-80
2022/05/15 00:39:33;;;;;;;10.88;7.05;;;;;;;11.35;90.91;101176.69;682464;28;1721;-80
2022/05/15 00:39:53;;;;;;;10.82;6.97;;;;;;;11.33;90.79;101199.38;687230;28;1377;-80
2022/05/15 00:40:19;;;;;;;10.27;6.80;;;;;;;11.36;89.79;101176.69;687325;28;1532;-80
2022/05/15 00:40:49;;;;;;;10.75;6.90;;;;;;;11.34;91.10;101196.78;674321;28;4709;-80
2022/05/15 00:41:10;;;;;;;9.60;6.63;;;;;;;11.40;91.08;101196.75;685144;28;1268;-80
2022/05/15 00:41:35;;;;;;;9.77;6.60;;;;;;;11.34;91.58;101206.34;685796;28;1299;-80
2022/05/15 00:41:55;;;;;;;9.75;6.95;;;;;;;11.30;92.04;101204.59;683521;28;1605;-80
2022/05/15 00:42:16;;;;;;;11.20;7.28;;;;;;;11.28;91.76;101193.25;682900;28;4490;-80
2022/05/15 00:42:37;;;;;;;10.20;7.03;;;;;;;11.29;90.87;101182.78;685805;28;1263;-80
2022/05/15 00:43:08;;;;;;;10.27;6.97;;;;;;;11.30;91.63;101194.13;685312;28;1393;-80
2022/05/15 00:43:36;;;;;;;9.23;6.68;;;;;;;11.36;90.62;101186.28;681639;28;4300;-80
2022/05/15 00:43:58;;;;;;;7.75;6.15;;;;;;;11.34;91.51;101183.69;685149;28;1770;-80
2022/05/15 00:44:19;;;;;;;9.73;6.55;;;;;;;11.36;90.78;101184.53;685216;28;1450;-80
2022/05/15 00:44:42;;;;;;;11.03;7.07;;;;;;;11.36;90.25;101178.44;682962;28;1252;-80
2022/05/15 00:45:05;;;;;;;10.70;6.68;;;;;;;11.36;91.79;101202.00;679547;29;850;-80
2022/05/15 00:45:27;;;;;;;10.38;6.78;;;;;;;11.34;91.40;101191.53;682090;28;1440;-80
2022/05/15 00:45:48;;;;;;;11.18;6.75;;;;;;;11.34;91.70;101193.25;682669;28;1446;-78
2022/05/15 00:46:13;;;;;;;12.48;7.05;;;;;;;11.31;92.26;101185.41;685222;28;1519;-78
2022/05/15 00:46:38;;;;;;;11.45;6.90;;;;;;;11.28;92.48;101182.78;682512;28;4355;-79
2022/05/15 00:46:59;;;;;;;10.85;6.68;;;;;;;11.28;91.75;101180.19;682871;28;1481;-79
2022/05/15 00:47:20;;;;;;;10.07;6.70;;;;;;;11.30;91.05;101181.03;683141;28;1326;-79
2022/05/15 00:47:41;;;;;;;10.45;7.20;;;;;;;11.30;91.45;101181.94;686017;28;1063;-79
2022/05/15 00:48:02;;;;;;;10.77;7.30;;;;;;;11.25;91.37;101186.28;683425;28;1536;-79
2022/05/15 00:48:25;;;;;;;10.60;6.90;;;;;;;11.23;91.43;101190.66;678475;29;1591;-79
2022/05/15 00:48:47;;;;;;;9.35;6.95;;;;;;;11.21;90.99;101205.47;677050;28;1597;-79
2022/05/15 00:49:12;;;;;;;10.65;6.93;;;;;;;11.23;91.76;101178.44;682466;28;1591;-79
2022/05/15 00:49:36;;;;;;;11.57;7.10;;;;;;;11.22;91.32;101197.63;672011;28;4279;-78
2022/05/15 00:50:01;;;;;;;10.15;7.20;;;;;;;11.22;91.45;101171.44;679718;28;1267;-79
2022/05/15 00:50:31;;;;;;;13.00;7.00;;;;;;;11.29;91.87;101208.09;680458;29;1706;-79
2022/05/15 00:50:53;;;;;;;9.25;6.60;;;;;;;11.29;92.03;101189.78;679748;29;1921;-79
2022/05/15 00:51:35;;;;;;;9.15;6.88;;;;;;;11.36;90.83;101179.31;680361;28;1518;-79
2022/05/15 00:52:07;;;;;;;12.52;6.85;;;;;;;11.39;89.54;101181.06;681068;28;1315;-79
2022/05/15 00:52:31;;;;;;;9.73;6.90;;;;;;;11.39;89.38;101189.78;683969;28;4300;-79
2022/05/15 00:52:57;;;;;;;9.57;6.63;;;;;;;11.36;90.33;101192.38;684544;28;1666;-79
2022/05/15 00:53:19;;;;;;;11.35;6.93;;;;;;;11.33;90.55;101178.44;688293;28;1318;-79
2022/05/15 00:53:42;;;;;;;10.07;6.60;;;;;;;11.33;89.84;101183.69;682268;28;1954;-78
2022/05/15 00:54:12;;;;;;;10.23;6.70;;;;;;;11.34;91.16;101188.91;680513;29;1389;-78
2022/05/15 00:54:39;;;;;;;11.02;7.00;;;;;;;11.32;90.95;101182.78;682473;28;1510;-78
2022/05/15 00:55:06;;;;;;;10.20;6.80;;;;;;;11.29;92.16;101187.16;684632;28;1417;-78
2022/05/15 00:55:44;;;;;;;9.80;6.53;;;;;;;11.28;91.34;101180.19;683651;28;4346;-78
2022/05/15 00:56:05;;;;;;;10.85;6.90;;;;;;;11.29;91.52;101179.31;682643;28;1635;-78
2022/05/15 00:56:31;;;;;;;11.20;6.65;;;;;;;11.24;91.28;101185.41;680063;28;1589;-78
2022/05/15 00:57:13;;;;;;;8.70;6.68;;;;;;;11.23;91.28;101194.13;682038;28;1713;-78
2022/05/15 00:57:47;;;;;;;11.63;6.90;;;;;;;11.25;90.99;101186.28;685098;28;1763;-78
2022/05/15 00:58:21;;;;;;;11.60;6.88;;;;;;;11.22;91.64;101184.53;684819;28;1334;-78
2022/05/15 00:58:51;;;;;;;10.65;7.00;;;;;;;11.19;91.05;101181.91;678757;28;4749;-79
2022/05/15 00:59:23;;;;;;;11.00;7.00;;;;;;;11.19;90.17;101183.69;683181;28;1732;-78
2022/05/15 01:00:05;;;;;;;11.32;6.85;;;;;;;11.15;92.33;101185.41;677096;29;1486;-78
2022/05/15 01:00:32;;;;;;;10.15;7.00;;;;;;;11.21;92.27;101187.16;682987;28;1583;-80
2022/05/15 01:00:53;;;;;;;9.68;6.85;;;;;;;11.22;91.90;101202.84;682234;28;1681;-78
2022/05/15 01:01:15;;;;;;;12.02;7.18;;;;;;;11.24;91.43;101189.75;681573;28;1550;-78
2022/05/15 01:01:37;;;;;;;10.25;6.85;;;;;;;11.25;91.23;101201.97;688382;28;4319;-78
2022/05/15 01:01:58;;;;;;;10.98;7.05;;;;;;;11.25;90.72;101196.75;687336;28;1471;-80
2022/05/15 01:02:23;;;;;;;9.80;6.78;;;;;;;11.21;91.86;101180.16;682638;28;1596;-80
2022/05/15 01:02:51;;;;;;;9.32;6.60;;;;;;;11.27;91.53;101191.50;682332;28;1425;-78
2022/05/15 01:03:17;;;;;;;9.20;6.70;;;;;;;11.28;90.88;101215.06;684954;28;1441;-78
2022/05/15 01:03:38;;;;;;;9.10;6.78;;;;;;;11.26;92.00;101214.22;687784;28;1773;-78
2022/05/15 01:04:06;;;;;;;10.25;7.07;;;;;;;11.28;91.79;101216.81;686549;28;1267;-78
2022/05/15 01:04:28;;;;;;;11.40;7.40;;;;;;;11.27;91.87;101210.72;681882;28;4378;-78
2022/05/15 01:04:50;;;;;;;10.75;6.97;;;;;;;11.27;91.44;101225.53;687659;28;1244;-79
2022/05/15 01:05:13;;;;;;;9.25;6.50;;;;;;;11.25;91.32;101215.94;687550;28;1525;-78
2022/05/15 01:05:39;;;;;;;10.23;6.65;;;;;;;11.27;91.47;101188.91;683163;28;1725;-79
2022/05/15 01:06:02;;;;;;;11.57;6.95;;;;;;;11.26;91.36;101198.50;685343;28;1422;-79
2022/05/15 01:06:29;;;;;;;10.45;7.00;;;;;;;11.25;90.50;101199.38;685024;28;1447;-78
2022/05/15 01:06:50;;;;;;;9.60;6.88;;;;;;;11.27;90.25;101215.06;685881;28;1375;-79
2022/05/15 01:07:15;;;;;;;10.23;6.75;;;;;;;11.27;89.94;101212.44;681771;28;2189;-78
2022/05/15 01:07:40;;;;;;;10.93;6.80;;;;;;;11.24;90.87;101214.22;684024;28;4502;-78
2022/05/15 01:08:08;;;;;;;9.32;6.90;;;;;;;11.24;91.79;101190.66;683788;28;1435;-79
2022/05/15 01:08:30;;;;;;;11.00;6.72;;;;;;;11.24;91.68;101190.66;682714;28;1687;-79
2022/05/15 01:08:52;;;;;;;10.15;6.72;;;;;;;11.22;92.73;101191.53;683328;28;1490;-79
2022/05/15 01:09:16;;;;;;;8.95;6.40;;;;;;;11.23;91.53;101215.06;685513;28;1708;-79
2022/05/15 01:09:37;;;;;;;10.25;6.55;;;;;;;11.23;92.55;101194.13;683164;28;1497;-78
2022/05/15 01:10:00;;;;;;;10.88;6.80;;;;;;;11.22;91.60;101207.22;683871;28;1561;-78
2022/05/15 01:10:21;;;;;;;9.75;6.70;;;;;;;11.20;91.55;101207.22;683389;28;4450;-79
2022/05/15 01:10:48;;;;;;;10.57;6.90;;;;;;;11.22;90.69;101197.63;682224;28;1275;-81
2022/05/15 01:11:13;;;;;;;8.60;6.47;;;;;;;11.22;91.39;101189.75;680533;28;1414;-79
2022/05/15 01:11:36;;;;;;;9.48;6.75;;;;;;;11.20;91.83;101209.84;676128;29;1479;-80
2022/05/15 01:12:00;;;;;;;9.48;6.60;;;;;;;11.17;92.61;101217.69;680522;29;1330;-79
2022/05/15 01:12:21;;;;;;;10.55;6.60;;;;;;;11.18;92.69;101200.25;688190;28;1454;-79
2022/05/15 01:12:43;;;;;;;11.88;6.70;;;;;;;11.19;93.07;101209.84;687540;28;1429;-79
2022/05/15 01:13:09;;;;;;;9.25;6.75;;;;;;;11.20;92.69;101215.06;682283;28;1485;-79
2022/05/15 01:13:36;;;;;;;9.30;6.40;;;;;;;11.17;92.25;101195.88;680982;28;4299;-78
2022/05/15 01:13:57;;;;;;;10.55;7.28;;;;;;;11.17;92.81;101208.94;683041;28;1961;-79
2022/05/15 01:14:19;;;;;;;10.98;6.80;;;;;;;11.14;93.13;101190.63;682507;28;1863;-79
2022/05/15 01:14:42;;;;;;;9.70;6.65;;;;;;;11.10;92.70;101215.91;683177;28;1758;-79
2022/05/15 01:15:04;;;;;;;10.00;6.78;;;;;;;11.06;93.70;101208.94;680916;28;1412;-79
2022/05/15 01:15:26;;;;;;;10.93;7.07;;;;;;;11.04;93.25;101216.78;680480;28;1359;-79
2022/05/15 01:15:53;;;;;;;10.95;7.43;;;;;;;11.04;93.14;101236.84;677874;29;1690;-79
2022/05/15 01:16:19;;;;;;;9.75;7.13;;;;;;;11.02;92.82;101221.16;679910;28;3752;-79
2022/05/15 01:16:42;;;;;;;10.40;6.70;;;;;;;11.03;92.73;101191.47;685073;28;5101;-79
2022/05/15 01:17:05;;;;;;;10.02;6.90;;;;;;;11.03;93.10;101222.00;682072;28;1473;-79
2022/05/15 01:17:31;;;;;;;11.43;6.78;;;;;;;11.00;93.58;101209.78;684349;28;1160;-79
2022/05/15 01:17:54;;;;;;;10.30;6.95;;;;;;;11.01;94.45;101213.28;682508;28;925;-79
2022/05/15 01:18:23;;;;;;;11.40;7.03;;;;;;;11.00;92.93;101220.25;683603;28;1550;-78
2022/05/15 01:18:47;;;;;;;9.60;6.70;;;;;;;11.03;93.45;101198.47;685417;28;1360;-79
2022/05/15 01:19:09;;;;;;;11.32;6.57;;;;;;;10.99;93.86;101189.72;687558;28;1349;-79
2022/05/15 01:19:32;;;;;;;11.32;6.70;;;;;;;10.95;93.50;101195.84;686994;28;4352;-79
2022/05/15 01:20:01;;;;;;;9.35;6.82;;;;;;;10.85;94.38;101194.91;684232;28;1425;-79
2022/05/15 01:20:26;;;;;;;10.13;7.10;;;;;;;10.82;93.72;101192.31;686621;28;1440;-79
2022/05/15 01:20:47;;;;;;;9.50;6.95;;;;;;;10.82;94.08;101208.00;682564;28;1406;-78
2022/05/15 01:21:30;;;;;;;9.90;6.85;;;;;;;10.89;92.93;101198.44;688929;28;1789;-79
2022/05/15 01:21:56;;;;;;;9.15;6.93;;;;;;;10.88;93.58;101196.69;687967;28;1366;-79
2022/05/15 01:22:18;;;;;;;10.55;7.03;;;;;;;10.87;93.84;101228.97;684029;28;1625;-79
2022/05/15 01:22:40;;;;;;;10.02;7.10;;;;;;;10.87;93.08;101198.44;679810;28;4612;-79
2022/05/15 01:23:01;;;;;;;11.52;7.30;;;;;;;10.85;93.17;101208.00;680172;28;1717;-79
2022/05/15 01:23:22;;;;;;;10.30;7.18;;;;;;;10.86;93.30;101204.53;682733;28;1444;-78
2022/05/15 01:23:46;;;;;;;9.60;7.20;;;;;;;10.83;93.54;101196.69;684796;28;1712;-79
2022/05/15 01:24:08;;;;;;;9.32;7.18;;;;;;;10.84;93.70;101200.16;685536;28;1576;-79
2022/05/15 01:24:30;;;;;;;10.95;6.93;;;;;;;10.84;93.39;101198.44;685616;28;1743;-79
2022/05/15 01:24:51;;;;;;;10.80;7.13;;;;;;;10.83;93.14;101207.13;682548;28;1436;-79
2022/05/15 01:25:18;;;;;;;9.52;6.85;;;;;;;10.85;92.76;101201.91;678625;28;1438;-78
2022/05/15 01:25:40;;;;;;;10.98;7.55;;;;;;;10.86;93.66;101217.59;683046;28;5935;-79
2022/05/15 01:26:01;;;;;;;10.30;6.75;;;;;;;10.85;94.68;101218.47;678970;28;1337;-79
2022/05/15 01:26:24;;;;;;;9.73;6.80;;;;;;;10.81;95.04;101195.78;682923;28;1679;-78
2022/05/15 01:26:45;;;;;;;10.05;7.13;;;;;;;10.82;95.08;101208.00;686753;28;1413;-78
2022/05/15 01:27:12;;;;;;;10.30;7.28;;;;;;;10.79;94.70;101194.91;685492;28;1486;-79
2022/05/15 01:27:33;;;;;;;10.52;7.22;;;;;;;10.78;94.59;101198.41;683014;28;1734;-79
2022/05/15 01:28:01;;;;;;;11.07;6.83;;;;;;;10.77;94.46;101198.41;680501;29;1364;-79
2022/05/15 01:28:25;;;;;;;11.00;7.57;;;;;;;10.78;94.02;101221.94;679741;28;4339;-79
2022/05/15 01:28:46;;;;;;;10.38;6.93;;;;;;;10.83;93.97;101214.13;684881;28;1460;-79
2022/05/15 01:29:07;;;;;;;9.88;6.55;;;;;;;10.83;93.67;101229.81;681198;28;1577;-78
2022/05/15 01:29:32;;;;;;;10.90;7.05;;;;;;;10.83;93.88;101233.28;682612;28;1315;-79
2022/05/15 01:29:54;;;;;;;11.30;7.32;;;;;;;10.79;94.15;101202.75;680652;28;1400;-79
2022/05/15 01:30:15;;;;;;;9.93;7.35;;;;;;;10.78;94.41;101194.91;677095;29;1446;-80
2022/05/15 01:30:39;;;;;;;10.77;7.13;;;;;;;10.80;94.34;101208.84;680350;29;2231;-78
2022/05/15 01:31:00;;;;;;;11.50;7.10;;;;;;;10.78;94.35;101232.41;680124;28;1677;-79
2022/05/15 01:31:21;;;;;;;11.07;7.07;;;;;;;10.79;93.96;101223.69;680351;28;4346;-79
2022/05/15 01:31:42;;;;;;;10.52;7.10;;;;;;;10.80;94.07;101220.22;681787;28;2101;-79
2022/05/15 01:32:03;;;;;;;11.20;6.78;;;;;;;10.79;93.91;101194.91;685089;28;1558;-79
2022/05/15 01:32:27;;;;;;;9.82;6.60;;;;;;;10.72;94.40;101196.63;685441;28;1442;-79
2022/05/15 01:32:49;;;;;;;10.03;7.10;;;;;;;10.71;94.21;101220.19;682502;28;1399;-79
2022/05/15 01:33:12;;;;;;;10.00;7.10;;;;;;;10.76;95.10;101228.91;685525;28;1774;-79
2022/05/15 01:33:33;;;;;;;8.63;6.72;;;;;;;10.77;94.49;101201.88;685387;28;1696;-79
2022/05/15 01:33:59;;;;;;;11.07;6.90;;;;;;;10.82;93.33;101243.75;685394;28;1915;-79
2022/05/15 01:34:21;;;;;;;11.65;7.20;;;;;;;10.81;93.21;101216.72;681064;28;4504;-79
2022/05/15 01:34:42;;;;;;;9.50;6.70;;;;;;;10.77;95.11;101232.41;683067;28;1462;-79
2022/05/15 01:35:04;;;;;;;9.27;7.05;;;;;;;10.76;95.18;101217.56;682284;28;1327;-79
2022/05/15 01:35:30;;;;;;;10.18;7.10;;;;;;;10.73;93.97;101216.69;682917;28;1743;-78
2022/05/15 01:35:52;;;;;;;11.25;7.20;;;;;;;10.73;93.26;101232.38;685240;28;1417;-79
2022/05/15 01:36:13;;;;;;;10.35;6.78;;;;;;;10.74;93.77;101235.88;685965;28;1365;-79
2022/05/15 01:36:34;;;;;;;9.43;6.78;;;;;;;10.75;95.01;101198.41;684434;28;1471;-79
2022/05/15 01:37:00;;;;;;;9.18;7.00;;;;;;;10.74;94.80;101212.34;682099;28;1487;-79
2022/05/15 01:37:22;;;;;;;10.90;7.10;;;;;;;10.78;93.81;101201.00;681970;28;4351;-79
2022/05/15 01:37:45;;;;;;;10.15;7.05;;;;;;;10.77;93.31;101199.25;678476;29;1445;-79
2022/05/15 01:38:07;;;;;;;10.40;6.80;;;;;;;10.76;94.92;101225.41;678719;29;1545;-79
2022/05/15 01:38:27;;;;;;;9.40;6.88;;;;;;;10.73;94.60;101197.53;679457;29;1659;-78
2022/05/15 01:38:49;;;;;;;10.85;7.00;;;;;;;10.75;93.75;101215.84;677063;29;1680;-79
2022/05/15 01:39:09;;;;;;;10.35;7.05;;;;;;;10.76;93.05;101213.22;678997;29;1617;-79
2022/05/15 01:39:31;;;;;;;9.88;6.88;;;;;;;10.76;93.38;101208.00;682345;28;1460;-79
2022/05/15 01:40:01;;;;;;;9.50;7.03;;;;;;;10.70;95.51;101198.41;682117;28;1783;-79
2022/05/15 01:40:23;;;;;;;9.50;6.68;;;;;;;10.66;95.24;101211.44;682625;28;4331;-79
2022/05/15 01:40:49;;;;;;;10.40;6.65;;;;;;;10.69;93.99;101214.94;685233;28;1847;-79
2022/05/15 01:41:12;;;;;;;9.20;7.07;;;;;;;10.66;93.92;101211.44;685603;28;959;-78
2022/05/15 01:41:33;;;;;;;10.07;6.90;;;;;;;10.65;94.27;101200.09;682726;28;1798;-79
2022/05/15 01:41:54;;;;;;;8.90;6.82;;;;;;;10.66;94.93;101200.97;682436;28;1541;-79
2022/05/15 01:42:15;;;;;;;9.65;7.20;;;;;;;10.66;94.11;101190.50;682893;28;1848;-78
2022/05/15 01:42:37;;;;;;;10.57;7.28;;;;;;;10.64;95.03;101195.75;682637;28;1572;-79
2022/05/15 01:42:59;;;;;;;11.20;7.15;;;;;;;10.64;95.34;101207.94;685609;28;1601;-79
2022/05/15 01:43:19;;;;;;;11.25;7.07;;;;;;;10.64;95.51;101207.94;684542;28;4358;-78
2022/05/15 01:43:43;;;;;;;9.98;7.22;;;;;;;10.63;95.17;101196.59;682979;28;1268;-79
2022/05/15 01:44:06;;;;;;;8.93;7.07;;;;;;;10.64;94.35;101214.03;680947;29;1321;-79
2022/05/15 01:44:31;;;;;;;10.15;6.95;;;;;;;10.65;94.07;101230.63;683005;28;1860;-79
2022/05/15 01:44:52;;;;;;;9.30;6.60;;;;;;;10.61;93.90;101223.63;684313;28;1319;-79
2022/05/15 01:45:14;;;;;;;9.25;6.47;;;;;;;10.63;93.49;101208.81;685258;28;1548;-79
2022/05/15 01:45:35;;;;;;;9.82;6.70;;;;;;;10.61;93.59;101223.63;684993;28;1874;-79
2022/05/15 01:45:56;;;;;;;10.00;7.00;;;;;;;10.61;94.61;101223.63;685322;28;1620;-78
2022/05/15 01:46:16;;;;;;;10.48;7.28;;;;;;;10.60;95.30;101222.75;681076;28;1648;-79
2022/05/15 01:46:37;;;;;;;10.43;7.38;;;;;;;10.57;95.96;101207.03;678469;28;4488;-79
2022/05/15 01:47:04;;;;;;;12.07;7.25;;;;;;;10.56;94.39;101200.06;680966;28;1392;-79
2022/05/15 01:47:25;;;;;;;10.30;7.10;;;;;;;10.59;94.57;101209.66;680747;29;1859;-79
2022/05/15 01:47:46;;;;;;;10.57;6.95;;;;;;;10.58;94.26;101206.19;681553;28;1447;-79
2022/05/15 01:48:07;;;;;;;10.13;7.00;;;;;;;10.57;94.48;101204.44;680244;28;1342;-78
2022/05/15 01:48:30;;;;;;;11.43;6.95;;;;;;;10.55;94.44;101206.19;680670;28;1488;-79
2022/05/15 01:48:52;;;;;;;10.63;7.22;;;;;;;10.51;95.14;101205.28;682489;28;1324;-79
2022/05/15 01:49:12;;;;;;;11.50;7.55;;;;;;;10.52;95.29;101214.00;682906;28;1434;-79
2022/05/15 01:49:33;;;;;;;11.33;7.20;;;;;;;10.51;94.83;101205.28;678678;28;4318;-79
2022/05/15 01:49:54;;;;;;;11.90;7.25;;;;;;;10.54;94.83;101202.69;680291;29;1594;-79
2022/05/15 01:50:15;;;;;;;10.77;6.82;;;;;;;10.55;94.63;101206.19;678236;29;1360;-79
2022/05/15 01:50:35;;;;;;;10.60;7.00;;;;;;;10.51;95.91;101200.06;684154;28;1573;-79
2022/05/15 01:50:56;;;;;;;11.47;7.43;;;;;;;10.50;96.03;101207.91;685266;28;1816;-79
2022/05/15 01:51:20;;;;;;;10.68;7.30;;;;;;;10.50;96.41;101206.16;684363;28;1520;-78
2022/05/15 01:51:42;;;;;;;9.95;7.25;;;;;;;10.50;96.11;101207.91;680811;28;1372;-79
2022/05/15 01:52:04;;;;;;;9.63;7.38;;;;;;;10.51;95.01;101201.81;680185;28;1683;-78
2022/05/15 01:52:29;;;;;;;9.80;7.07;;;;;;;10.51;94.46;101209.66;682394;28;4277;-79
2022/05/15 01:52:50;;;;;;;9.73;6.68;;;;;;;10.50;94.83;101208.75;680482;28;1369;-79
2022/05/15 01:53:11;;;;;;;10.90;7.20;;;;;;;10.47;95.97;101211.38;685500;28;1918;-79
2022/05/15 01:53:32;;;;;;;9.82;7.25;;;;;;;10.43;96.54;101207.00;681966;28;1427;-79
2022/05/15 01:53:53;;;;;;;10.52;7.40;;;;;;;10.40;96.37;101206.97;685474;28;1969;-78
2022/05/15 01:54:14;;;;;;;11.60;7.57;;;;;;;10.39;96.61;101206.09;682126;28;1934;-79
2022/05/15 01:54:34;;;;;;;9.65;7.28;;;;;;;10.40;95.69;101214.81;685975;28;1511;-79
2022/05/15 01:54:55;;;;;;;9.87;7.10;;;;;;;10.42;95.70;101209.59;679745;28;1311;-79
2022/05/15 01:55:20;;;;;;;10.43;6.82;;;;;;;10.45;95.50;101207.00;684481;28;1558;-79
2022/05/15 01:55:41;;;;;;;10.63;7.07;;;;;;;10.46;95.01;101204.38;678089;29;4767;-79
2022/05/15 01:56:04;;;;;;;10.32;7.03;;;;;;;10.43;95.17;101208.75;677312;29;1201;-78
2022/05/15 01:56:25;;;;;;;9.30;7.40;;;;;;;10.38;96.01;101211.31;682801;28;1403;-79
2022/05/15 01:56:48;;;;;;;9.00;7.15;;;;;;;10.35;95.29;101201.72;682252;28;1299;-79
2022/05/15 01:57:11;;;;;;;10.98;7.47;;;;;;;10.38;95.41;101206.09;681545;28;1532;-78
2022/05/15 01:57:33;;;;;;;12.15;7.15;;;;;;;10.37;95.69;101209.56;683778;28;1284;-79
2022/05/15 01:57:54;;;;;;;8.88;6.85;;;;;;;10.35;95.30;101201.72;684765;28;1916;-79
2022/05/15 01:58:16;;;;;;;9.20;6.75;;;;;;;10.34;96.07;101205.22;680517;28;2162;-79
2022/05/15 01:58:37;;;;;;;9.63;6.97;;;;;;;10.30;95.99;101202.53;678039;29;4295;-79
2022/05/15 01:58:57;;;;;;;10.32;7.25;;;;;;;10.22;96.71;101205.97;681428;28;1340;-79
2022/05/15 01:59:18;;;;;;;10.85;7.57;;;;;;;10.20;96.61;101205.13;677925;29;1492;-79
2022/05/15 01:59:39;;;;;;;12.43;8.20;;;;;;;10.19;97.39;101205.97;676812;29;1621;-79
2022/05/15 01:59:59;;;;;;;11.63;8.27;;;;;;;10.19;97.08;101208.59;676807;29;1754;-79
2022/05/15 02:00:23;;;;;;;12.68;7.60;;;;;;;10.19;97.11;101200.75;675825;29;1344;-79
2022/05/15 02:00:44;;;;;;;11.55;7.40;;;;;;;10.22;96.04;101208.59;677990;28;1444;-79
2022/05/15 02:01:08;;;;;;;10.80;7.38;;;;;;;10.20;96.28;101207.72;676279;29;1851;-79
2022/05/15 02:01:29;;;;;;;9.98;7.35;;;;;;;10.22;95.91;101205.13;677126;29;4349;-79
2022/05/15 02:01:49;;;;;;;8.90;7.25;;;;;;;10.22;95.82;101213.81;682030;28;1392;-79
2022/05/15 02:02:10;;;;;;;10.90;7.37;;;;;;;10.22;95.07;101207.72;682054;28;1967;-79
2022/05/15 02:02:32;;;;;;;11.68;7.30;;;;;;;10.24;95.51;101211.22;679194;29;1496;-79